createdAt,value
2022-08-18T00:01:52.576Z,6.63
2022-08-18T00:03:59.123Z,5.22
2022-08-18T00:06:04.656Z,7.15
2022-08-18T00:10:17.970Z,4.85
2022-08-18T00:12:26.936Z,7.55
2022-08-18T00:14:32.097Z,5.90
2022-08-18T00:16:39.589Z,7.15
2022-08-18T00:18:44.390Z,7.47
2022-08-18T00:20:49.537Z,4.93
2022-08-18T00:25:01.557Z,9.82
2022-08-18T00:27:06.833Z,5.85
2022-08-18T00:29:12.400Z,7.75
2022-08-18T00:31:17.314Z,5.35
2022-08-18T00:33:24.994Z,6.70
2022-08-18T00:35:32.737Z,9.23
2022-08-18T00:37:37.789Z,7.00
2022-08-18T00:41:52.838Z,6.18
2022-08-18T00:43:58.916Z,10.93
2022-08-18T00:46:04.256Z,6.13
2022-08-18T00:48:11.092Z,6.13
2022-08-18T00:50:31.617Z,3.58
2022-08-18T00:52:36.816Z,5.25
2022-08-18T00:54:45.153Z,3.65
2022-08-18T00:56:53.503Z,7.05
2022-08-18T00:59:04.312Z,12.68
2022-08-18T01:01:12.322Z,4.85
2022-08-18T01:03:24.558Z,7.28
2022-08-18T01:05:40.969Z,5.47
2022-08-18T01:09:53.678Z,4.97
2022-08-18T01:11:59.027Z,5.45
2022-08-18T01:14:03.881Z,4.65
2022-08-18T01:16:21.613Z,4.95
2022-08-18T01:18:38.863Z,8.50
2022-08-18T01:21:17.986Z,8.30
2022-08-18T01:23:26.129Z,6.15
2022-08-18T01:25:43.360Z,5.40
2022-08-18T01:27:48.503Z,7.20
2022-08-18T01:31:58.160Z,5.32
2022-08-18T01:34:04.675Z,4.35
2022-08-18T01:36:16.888Z,8.02
2022-08-18T01:38:26.337Z,4.10
2022-08-18T01:41:27.550Z,4.13
2022-08-18T01:42:56.593Z,4.45
2022-08-18T01:45:03.804Z,5.50
2022-08-18T01:47:10.849Z,8.48
2022-08-18T01:49:15.791Z,7.68
2022-08-18T01:51:38.167Z,9.43
2022-08-18T01:53:48.737Z,9.07
2022-08-18T01:55:53.800Z,6.85
2022-08-18T02:00:04.258Z,8.60
2022-08-18T02:02:24.446Z,13.57
2022-08-18T02:04:36.631Z,15.95
2022-08-18T02:06:46.457Z,8.27
2022-08-18T02:08:55.489Z,9.35
2022-08-18T02:11:01.417Z,9.00
2022-08-18T02:13:06.307Z,7.40
2022-08-18T02:15:13.239Z,7.75
2022-08-18T02:17:18.328Z,9.00
2022-08-18T02:19:23.205Z,8.18
2022-08-18T02:21:28.051Z,8.80
2022-08-18T02:23:32.955Z,6.93
2022-08-18T02:25:40.796Z,8.25
2022-08-18T02:27:46.250Z,9.32
2022-08-18T02:29:51.114Z,8.77
2022-08-18T02:31:56.201Z,8.40
2022-08-18T02:34:01.015Z,9.85
2022-08-18T02:36:07.210Z,9.45
2022-08-18T02:38:12.057Z,11.45
2022-08-18T02:40:23.131Z,18.13
2022-08-18T02:42:31.888Z,14.25
2022-08-18T02:44:37.748Z,11.32
2022-08-18T02:46:42.585Z,7.85
2022-08-18T02:48:47.513Z,7.82
2022-08-18T02:50:52.359Z,8.50
2022-08-18T02:52:57.629Z,7.97
2022-08-18T03:01:23.818Z,6.35
2022-08-18T03:03:33.926Z,5.78
2022-08-18T03:07:43.686Z,7.40
2022-08-18T03:11:53.644Z,7.63
2022-08-18T03:14:00.411Z,7.35
2022-08-18T03:16:08.223Z,5.32
2022-08-18T03:18:13.441Z,5.43
2022-08-18T03:22:35.741Z,6.40
2022-08-18T03:24:41.125Z,6.97
2022-08-18T03:26:48.005Z,5.78
2022-08-18T03:28:55.443Z,5.88
2022-08-18T03:31:00.306Z,5.10
2022-08-18T03:33:07.794Z,5.75
2022-08-18T03:35:14.682Z,5.95
2022-08-18T03:37:19.631Z,8.20
2022-08-18T03:39:27.798Z,6.82
2022-08-18T03:41:57.457Z,5.32
2022-08-18T03:43:58.772Z,5.20
2022-08-18T03:46:04.198Z,5.97
2022-08-18T03:48:11.906Z,5.00
2022-08-18T03:50:16.967Z,5.30
2022-08-18T03:52:21.829Z,5.60
2022-08-18T03:54:26.995Z,5.70
2022-08-18T03:58:38.860Z,4.70
2022-08-18T04:00:44.061Z,5.22
2022-08-18T04:04:56.075Z,5.72
2022-08-18T04:07:04.784Z,5.45
2022-08-18T04:09:12.857Z,5.05
2022-08-18T04:11:17.673Z,6.05
2022-08-18T04:13:22.535Z,6.25
2022-08-18T04:15:28.369Z,6.85
2022-08-18T04:17:33.190Z,5.60
2022-08-18T04:19:38.418Z,5.45
2022-08-18T04:21:46.420Z,6.13
2022-08-18T04:23:51.265Z,6.35
2022-08-18T04:25:59.763Z,5.97
2022-08-18T04:28:05.037Z,6.22
2022-08-18T04:30:11.603Z,5.35
2022-08-18T04:32:16.689Z,4.95
2022-08-18T04:34:23.606Z,5.65
2022-08-18T04:36:30.123Z,6.18
2022-08-18T04:38:37.799Z,4.95
2022-08-18T04:40:43.215Z,6.50
2022-08-18T04:42:48.359Z,5.85
2022-08-18T04:46:58.270Z,6.40
2022-08-18T04:49:03.812Z,5.57
2022-08-18T04:51:10.520Z,6.68
2022-08-18T04:53:27.815Z,8.13
2022-08-18T04:55:35.335Z,5.95
2022-08-18T04:57:42.629Z,6.78
2022-08-18T04:59:50.338Z,6.10
2022-08-18T05:01:55.122Z,5.95
2022-08-18T05:04:01.584Z,5.53
2022-08-18T05:06:08.078Z,5.63
2022-08-18T05:08:13.017Z,6.93
2022-08-18T05:10:19.877Z,5.53
2022-08-18T05:12:27.378Z,5.80
2022-08-18T05:14:33.210Z,5.75
2022-08-18T05:16:42.202Z,5.75
2022-08-18T05:18:54.823Z,7.20
2022-08-18T05:21:01.377Z,8.88
2022-08-18T05:23:06.767Z,6.85
2022-08-18T05:27:18.416Z,6.00
2022-08-18T05:29:26.349Z,6.68
2022-08-18T05:31:35.923Z,5.43
2022-08-18T05:33:42.182Z,7.40
2022-08-18T05:35:51.822Z,6.65
2022-08-18T05:38:11.485Z,7.63
2022-08-18T05:40:18.184Z,7.13
2022-08-18T05:42:25.994Z,6.88
2022-08-18T05:44:36.667Z,6.72
2022-08-18T05:46:45.412Z,7.85
2022-08-18T05:48:50.297Z,6.75
2022-08-18T05:50:55.231Z,11.55
2022-08-18T05:53:04.040Z,6.25
2022-08-18T05:55:38.544Z,8.00
2022-08-18T05:57:48.231Z,8.15
2022-08-18T05:59:57.870Z,6.63
2022-08-18T06:02:11.070Z,7.35
2022-08-18T06:04:26.472Z,7.18
2022-08-18T06:06:34.072Z,7.57
2022-08-18T06:08:43.393Z,6.65
2022-08-18T06:10:51.493Z,5.82
2022-08-18T06:13:00.581Z,6.95
2022-08-18T06:15:16.016Z,5.50
2022-08-18T06:17:46.729Z,6.25
2022-08-18T06:20:03.779Z,5.90
2022-08-18T06:22:20.672Z,7.35
2022-08-18T06:24:33.397Z,7.65
2022-08-18T06:26:47.488Z,6.50
2022-08-18T06:29:04.825Z,7.40
2022-08-18T06:31:19.184Z,6.10
2022-08-18T06:33:40.345Z,5.63
2022-08-18T06:35:52.121Z,6.00
2022-08-18T06:38:25.862Z,8.07
2022-08-18T06:40:30.825Z,7.93
2022-08-18T06:42:39.937Z,7.68
2022-08-18T06:44:49.484Z,7.78
2022-08-18T06:47:04.493Z,9.95
2022-08-18T06:49:13.086Z,8.38
2022-08-18T06:51:22.707Z,6.80
2022-08-18T06:53:55.070Z,7.32
2022-08-18T06:56:00.197Z,7.10
2022-08-18T06:58:07.275Z,9.57
2022-08-18T07:00:24.398Z,9.70
2022-08-18T07:02:45.789Z,7.03
2022-08-18T07:05:06.031Z,7.60
2022-08-18T07:07:20.675Z,6.50
2022-08-18T07:09:27.874Z,6.35
2022-08-18T07:11:40.070Z,7.00
2022-08-18T07:13:45.832Z,6.82
2022-08-18T07:15:52.334Z,7.90
2022-08-18T07:18:06.509Z,10.65
2022-08-18T07:20:21.084Z,9.68
2022-08-18T07:22:30.094Z,5.93
2022-08-18T07:24:47.567Z,6.65
2022-08-18T07:27:04.123Z,5.68
2022-08-18T07:29:16.658Z,7.20
2022-08-18T07:31:35.215Z,8.68
2022-08-18T07:33:44.887Z,7.53
2022-08-18T07:35:56.566Z,7.93
2022-08-18T07:38:18.940Z,11.13
2022-08-18T07:40:35.805Z,7.65
2022-08-18T07:42:54.301Z,8.57
2022-08-18T07:47:20.246Z,9.05
2022-08-18T07:49:31.110Z,8.05
2022-08-18T07:51:53.151Z,7.60
2022-08-18T07:54:02.919Z,8.30
2022-08-18T07:56:17.010Z,7.32
2022-08-18T07:58:29.724Z,8.13
2022-08-18T08:03:21.633Z,8.85
2022-08-18T08:05:41.913Z,8.50
2022-08-18T08:07:52.706Z,6.95
2022-08-18T08:10:13.801Z,7.38
2022-08-18T08:12:31.121Z,9.05
2022-08-18T08:14:43.840Z,8.00
2022-08-18T08:16:53.412Z,7.53
2022-08-18T08:19:12.110Z,7.43
2022-08-18T08:21:23.707Z,6.22
2022-08-18T08:23:33.927Z,7.53
2022-08-18T08:25:50.774Z,7.50
2022-08-18T08:28:08.336Z,6.63
2022-08-18T08:30:16.726Z,5.53
2022-08-18T08:32:32.553Z,9.35
2022-08-18T08:34:45.701Z,6.25
2022-08-18T08:37:01.552Z,8.45
2022-08-18T08:39:13.331Z,6.25
2022-08-18T08:41:26.236Z,10.45
2022-08-18T08:43:37.379Z,6.32
2022-08-18T08:45:48.551Z,7.78
2022-08-18T08:48:08.474Z,6.25
2022-08-18T08:50:17.574Z,5.82
2022-08-18T08:52:32.801Z,5.03
2022-08-18T08:54:46.751Z,9.07
2022-08-18T08:56:54.616Z,8.45
2022-08-18T08:59:03.303Z,6.40
2022-08-18T09:01:10.190Z,5.60
2022-08-18T09:03:34.537Z,6.22
2022-08-18T09:05:44.397Z,6.35
2022-08-18T09:08:09.637Z,6.88
2022-08-18T09:10:54.455Z,6.07
2022-08-18T09:13:16.670Z,8.80
2022-08-18T09:15:59.992Z,6.75
2022-08-18T09:18:34.245Z,8.25
2022-08-18T09:21:04.625Z,6.97
2022-08-18T09:23:20.128Z,7.30
2022-08-18T09:25:47.006Z,5.95
2022-08-18T09:28:10.313Z,8.02
2022-08-18T09:30:43.053Z,9.50
2022-08-18T09:32:59.815Z,7.45
2022-08-18T09:35:38.089Z,6.22
2022-08-18T09:38:12.636Z,6.32
2022-08-18T09:43:20.220Z,8.88
2022-08-18T09:45:45.288Z,7.85
2022-08-18T09:50:57.168Z,5.60
2022-08-18T09:53:20.083Z,4.80
2022-08-18T09:56:01.391Z,5.72
2022-08-18T09:58:25.662Z,10.73
2022-08-18T10:00:34.162Z,6.60
2022-08-18T10:03:06.217Z,6.75
2022-08-18T10:05:29.943Z,5.80
2022-08-18T10:07:43.926Z,4.57
2022-08-18T10:10:12.844Z,6.75
2022-08-18T10:12:56.789Z,5.75
2022-08-18T10:15:40.721Z,5.93
2022-08-18T10:18:01.156Z,6.32
2022-08-18T10:22:47.942Z,6.38
2022-08-18T10:25:09.190Z,6.82
2022-08-18T10:27:49.551Z,6.28
2022-08-18T10:29:57.737Z,5.45
2022-08-18T10:32:33.989Z,6.60
2022-08-18T10:34:52.315Z,5.07
2022-08-18T10:37:00.329Z,5.30
2022-08-18T10:39:07.951Z,4.40
2022-08-18T10:41:22.591Z,4.38
2022-08-18T10:43:55.502Z,6.60
2022-08-18T10:46:25.319Z,6.43
2022-08-18T10:50:47.203Z,7.50
2022-08-18T10:53:39.309Z,6.40
2022-08-18T10:55:50.905Z,4.25
2022-08-18T10:58:15.433Z,5.07
2022-08-18T11:00:26.113Z,6.10
2022-08-18T11:03:02.024Z,5.30
2022-08-18T11:05:10.678Z,4.20
2022-08-18T11:07:19.622Z,5.63
2022-08-18T11:09:29.751Z,9.40
2022-08-18T11:11:42.133Z,4.65
2022-08-18T11:14:03.339Z,5.38
2022-08-18T11:16:24.077Z,5.05
2022-08-18T11:18:43.162Z,6.43
2022-08-18T11:20:48.438Z,8.32
2022-08-18T11:22:56.794Z,7.93
2022-08-18T11:25:03.711Z,4.90
2022-08-18T11:27:22.587Z,6.40
2022-08-18T11:29:34.222Z,6.32
2022-08-18T11:31:41.813Z,5.80
2022-08-18T11:33:46.708Z,6.10
2022-08-18T11:36:01.677Z,6.25
2022-08-18T11:38:20.914Z,6.50
2022-08-18T11:41:10.883Z,4.90
2022-08-18T11:43:17.382Z,9.25
2022-08-18T11:45:30.066Z,6.35
2022-08-18T11:47:40.535Z,7.97
2022-08-18T11:49:55.297Z,5.22
2022-08-18T11:52:03.545Z,7.47
2022-08-18T11:54:24.998Z,5.20
2022-08-18T11:56:37.669Z,5.90
2022-08-18T11:58:46.328Z,4.78
2022-08-18T12:01:02.980Z,4.63
2022-08-18T12:03:16.247Z,4.60
2022-08-18T12:05:21.366Z,5.97
2022-08-18T12:07:33.625Z,6.45
2022-08-18T12:15:02.912Z,4.40
2022-08-18T12:17:14.020Z,4.88
2022-08-18T12:19:22.284Z,5.82
2022-08-18T12:21:29.437Z,5.53
2022-08-18T12:23:39.069Z,5.47
2022-08-18T12:25:53.733Z,4.78
2022-08-18T12:30:04.176Z,4.75
2022-08-18T12:36:47.286Z,5.60
2022-08-18T12:41:01.765Z,3.83
2022-08-18T12:43:08.173Z,5.95
2022-08-18T12:45:13.755Z,5.00
2022-08-18T12:47:21.528Z,6.40
2022-08-18T12:49:28.207Z,5.78
2022-08-18T12:51:37.120Z,5.05
2022-08-18T12:53:59.151Z,8.40
2022-08-18T12:56:05.244Z,5.60
2022-08-18T12:58:10.198Z,6.55
2022-08-18T13:00:18.778Z,4.80
2022-08-18T13:02:24.362Z,3.75
2022-08-18T13:04:30.927Z,4.10
2022-08-18T13:06:54.188Z,9.20
2022-08-18T13:09:16.719Z,6.15
2022-08-18T13:11:32.084Z,7.93
2022-08-18T13:15:57.814Z,5.80
2022-08-18T13:18:06.593Z,5.00
2022-08-18T13:20:21.117Z,5.13
2022-08-18T13:22:32.798Z,6.25
2022-08-18T13:24:38.194Z,6.25
2022-08-18T13:26:46.612Z,5.90
2022-08-18T13:28:57.063Z,7.45
2022-08-18T13:31:05.544Z,6.63
2022-08-18T13:33:53.564Z,7.82
2022-08-18T13:35:44.090Z,5.07
2022-08-18T13:37:52.550Z,6.55
2022-08-18T13:39:58.372Z,5.55
2022-08-18T13:42:21.427Z,6.20
2022-08-18T13:44:29.199Z,5.80
2022-08-18T13:46:34.076Z,5.70
2022-08-18T13:50:46.743Z,6.70
2022-08-18T13:52:54.931Z,4.90
2022-08-18T13:54:59.929Z,5.47
2022-08-18T13:57:05.557Z,4.50
2022-08-18T13:59:11.652Z,5.28
2022-08-18T14:01:41.935Z,4.88
2022-08-18T14:03:46.609Z,5.05
2022-08-18T14:05:57.582Z,5.10
2022-08-18T14:08:09.039Z,6.18
2022-08-18T14:10:16.855Z,9.57
2022-08-18T14:12:28.265Z,8.55
2022-08-18T14:14:36.150Z,5.30
2022-08-18T14:16:42.343Z,5.68
2022-08-18T14:19:09.838Z,11.20
2022-08-18T14:21:27.618Z,8.80
2022-08-18T14:23:53.123Z,7.88
2022-08-18T14:28:24.800Z,13.55
2022-08-18T14:30:30.216Z,5.20
2022-08-18T14:32:36.188Z,5.00
2022-08-18T14:34:50.862Z,6.20
2022-08-18T14:36:55.909Z,4.10
2022-08-18T14:39:06.256Z,5.10
2022-08-18T14:41:16.086Z,3.78
2022-08-18T14:43:24.848Z,5.45
2022-08-18T14:45:35.245Z,5.95
2022-08-18T14:47:42.246Z,5.40
2022-08-18T14:49:47.830Z,4.20
2022-08-18T14:51:53.257Z,6.47
2022-08-18T14:53:58.201Z,4.70
2022-08-18T14:56:08.113Z,5.85
2022-08-18T14:58:14.781Z,5.93
2022-08-18T15:00:23.726Z,6.30
2022-08-18T15:02:29.100Z,4.43
2022-08-18T15:04:34.007Z,6.68
2022-08-18T15:06:43.474Z,4.60
2022-08-18T15:09:00.564Z,7.32
2022-08-18T15:11:11.703Z,5.80
2022-08-18T15:13:17.259Z,6.30
2022-08-18T15:15:22.829Z,8.90
2022-08-18T15:17:30.189Z,7.05
2022-08-18T15:19:59.577Z,4.80
2022-08-18T15:22:15.974Z,5.28
2022-08-18T15:24:33.446Z,4.68
2022-08-18T15:26:45.953Z,7.38
2022-08-18T15:28:50.947Z,6.03
2022-08-18T15:33:25.854Z,6.80
2022-08-18T15:35:36.407Z,5.40
2022-08-18T15:37:43.935Z,5.03
2022-08-18T15:42:05.159Z,6.78
2022-08-18T15:44:11.460Z,6.82
2022-08-18T15:46:16.946Z,6.78
2022-08-18T15:48:24.294Z,6.80
2022-08-18T15:50:29.444Z,4.55
2022-08-18T15:52:34.388Z,4.85
2022-08-18T15:54:42.376Z,6.13
2022-08-18T15:56:57.857Z,5.22
2022-08-18T15:59:10.323Z,5.65
2022-08-18T16:01:21.130Z,5.13
2022-08-18T16:03:35.628Z,6.03
2022-08-18T16:07:47.731Z,7.03
2022-08-18T16:09:52.817Z,5.40
2022-08-18T16:12:00.221Z,5.22
2022-08-18T16:14:09.300Z,6.47
2022-08-18T16:16:16.580Z,5.30
2022-08-18T16:18:34.243Z,6.47
2022-08-18T16:20:40.344Z,5.00
2022-08-18T16:22:45.340Z,6.43
2022-08-18T16:24:54.924Z,8.30
2022-08-18T16:27:00.248Z,4.78
2022-08-18T16:31:15.561Z,13.70
2022-08-18T16:33:20.588Z,4.63
2022-08-18T16:35:26.320Z,7.30
2022-08-18T16:37:31.269Z,6.72
2022-08-18T16:39:36.166Z,6.13
2022-08-18T16:41:41.228Z,4.70
2022-08-18T16:45:55.840Z,5.95
2022-08-18T16:48:00.671Z,5.68
2022-08-18T16:52:10.466Z,7.55
2022-08-18T16:56:23.950Z,5.40
2022-08-18T16:58:41.552Z,5.93
2022-08-18T17:00:59.519Z,10.05
2022-08-18T17:03:22.495Z,6.47
2022-08-18T17:05:27.462Z,7.03
2022-08-18T17:09:38.482Z,5.57
2022-08-18T17:11:51.785Z,5.78
2022-08-18T17:13:59.023Z,5.72
2022-08-18T17:16:03.930Z,7.95
2022-08-18T17:20:19.097Z,6.22
2022-08-18T17:22:24.266Z,6.00
2022-08-18T17:24:31.209Z,5.82
2022-08-18T17:26:46.578Z,9.65
2022-08-18T17:29:00.873Z,8.63
2022-08-18T17:31:05.754Z,5.55
2022-08-18T17:33:18.151Z,6.15
2022-08-18T17:35:29.160Z,5.15
2022-08-18T17:37:34.591Z,5.57
2022-08-18T17:39:44.493Z,6.53
2022-08-18T17:42:02.185Z,5.97
2022-08-18T17:44:09.578Z,5.00
2022-08-18T17:46:23.748Z,4.97
2022-08-18T17:48:38.091Z,6.72
2022-08-18T17:51:00.740Z,5.57
2022-08-18T17:53:08.976Z,6.88
2022-08-18T17:55:26.025Z,7.20
2022-08-18T17:57:35.280Z,5.45
2022-08-18T17:59:51.887Z,6.03
2022-08-18T18:02:16.650Z,6.65
2022-08-18T18:04:36.620Z,7.10
2022-08-18T18:06:46.284Z,6.70
2022-08-18T18:08:57.892Z,7.03
2022-08-18T18:11:13.628Z,6.35
2022-08-18T18:13:28.699Z,7.90
2022-08-18T18:15:39.830Z,7.22
2022-08-18T18:17:46.018Z,8.07
2022-08-18T18:19:59.864Z,7.78
2022-08-18T18:22:08.200Z,9.30
2022-08-18T18:24:23.881Z,7.32
2022-08-18T18:26:31.923Z,7.97
2022-08-18T18:28:38.296Z,8.70
2022-08-18T18:30:43.760Z,10.27
2022-08-18T18:32:59.043Z,10.82
2022-08-18T18:35:20.149Z,8.25
2022-08-18T18:37:32.594Z,8.18
2022-08-18T18:39:39.605Z,10.15
2022-08-18T18:41:44.508Z,8.15
2022-08-18T18:46:29.214Z,8.00
2022-08-18T18:48:52.182Z,8.35
2022-08-18T18:51:11.873Z,9.32
2022-08-18T18:53:27.376Z,8.68
2022-08-18T18:55:36.017Z,8.35
2022-08-18T18:57:48.503Z,8.00
2022-08-18T19:00:09.701Z,10.93
2022-08-18T19:02:33.161Z,8.10
2022-08-18T19:04:42.687Z,7.60
2022-08-18T19:06:56.249Z,6.35
2022-08-18T19:09:09.230Z,7.80
2022-08-18T19:11:22.023Z,8.98
2022-08-18T19:13:33.221Z,8.95
2022-08-18T19:15:41.933Z,10.18
2022-08-18T19:17:51.756Z,8.82
2022-08-18T19:20:03.292Z,8.07
2022-08-18T19:22:17.041Z,14.52
2022-08-18T19:26:36.179Z,7.97
2022-08-18T19:29:01.162Z,9.18
2022-08-18T19:31:15.659Z,10.15
2022-08-18T19:33:32.611Z,10.70
2022-08-18T19:35:59.136Z,8.68
2022-08-18T19:38:20.955Z,8.85
2022-08-18T19:40:31.813Z,10.73
2022-08-18T19:42:42.847Z,8.95
2022-08-18T19:45:14.911Z,13.00
2022-08-18T19:47:26.864Z,9.13
2022-08-18T19:49:38.966Z,8.30
2022-08-18T19:51:44.601Z,8.93
2022-08-18T19:54:23.184Z,7.75
2022-08-18T19:56:48.273Z,7.50
2022-08-18T19:59:26.968Z,9.05
2022-08-18T20:01:52.945Z,7.55
2022-08-18T20:04:15.047Z,8.07
2022-08-18T20:06:37.780Z,8.73
2022-08-18T20:09:04.113Z,6.78
2022-08-18T20:11:44.113Z,9.38
2022-08-18T20:13:49.804Z,8.52
2022-08-18T20:16:14.046Z,7.85
2022-08-18T20:18:26.571Z,7.70
2022-08-18T20:20:33.166Z,7.22
2022-08-18T20:22:43.295Z,6.93
2022-08-18T20:24:57.134Z,6.43
2022-08-18T20:27:35.200Z,8.95
2022-08-18T20:29:48.168Z,7.60
2022-08-18T20:32:02.936Z,7.63
2022-08-18T20:34:14.753Z,7.78
2022-08-18T20:36:30.199Z,7.78
2022-08-18T20:38:37.529Z,7.55
2022-08-18T20:40:46.799Z,6.82
2022-08-18T20:43:06.611Z,7.22
2022-08-18T20:45:15.882Z,9.23
2022-08-18T20:47:45.392Z,7.18
2022-08-18T20:50:03.069Z,10.35
2022-08-18T20:52:15.895Z,7.50
2022-08-18T20:54:30.231Z,7.00
2022-08-18T20:56:43.082Z,7.40
2022-08-18T20:58:59.615Z,6.72
2022-08-18T21:03:13.774Z,7.88
2022-08-18T21:05:27.668Z,8.50
2022-08-18T21:07:36.648Z,7.40
2022-08-18T21:09:42.594Z,8.38
2022-08-18T21:11:49.849Z,5.90
2022-08-18T21:14:04.104Z,8.73
2022-08-18T21:16:09.963Z,10.85
2022-08-18T21:18:21.725Z,8.43
2022-08-18T21:20:26.753Z,11.52
2022-08-18T21:24:40.427Z,7.87
2022-08-18T21:26:50.226Z,8.63
2022-08-18T21:29:00.204Z,7.97
2022-08-18T21:31:41.676Z,8.32
2022-08-18T21:33:33.385Z,9.50
2022-08-18T21:35:39.671Z,9.55
2022-08-18T21:37:45.039Z,9.75
2022-08-18T21:39:55.991Z,10.30
2022-08-18T21:42:02.117Z,8.35
2022-08-18T21:44:11.084Z,10.93
2022-08-18T21:46:23.881Z,9.45
2022-08-18T21:48:30.403Z,11.98
2022-08-18T21:50:37.226Z,9.75
2022-08-18T21:52:53.297Z,11.52
2022-08-18T21:55:04.500Z,11.05
2022-08-18T21:57:25.021Z,11.38
2022-08-18T21:59:32.527Z,12.07
2022-08-18T22:01:39.634Z,8.93
2022-08-18T22:03:59.585Z,8.95
2022-08-18T22:06:15.600Z,10.43
2022-08-18T22:08:23.912Z,10.93
2022-08-18T22:10:44.027Z,12.00
2022-08-18T22:13:07.863Z,9.93
2022-08-18T22:15:19.581Z,10.63
2022-08-18T22:17:35.139Z,10.27
2022-08-18T22:21:49.885Z,11.70
2022-08-18T22:24:07.706Z,12.15
2022-08-18T22:26:16.636Z,8.82
2022-08-18T22:28:27.287Z,9.93
2022-08-18T22:30:36.136Z,9.07
2022-08-18T22:32:45.732Z,10.32
2022-08-18T22:34:53.453Z,9.98
2022-08-18T22:37:02.075Z,9.32
2022-08-18T22:39:08.918Z,11.25
2022-08-18T22:41:13.874Z,10.23
2022-08-18T22:43:19.427Z,10.90
2022-08-18T22:45:24.298Z,11.52
2022-08-18T22:47:42.658Z,12.43
2022-08-18T22:49:47.847Z,10.30
2022-08-18T22:51:57.985Z,11.20
2022-08-18T22:54:02.923Z,12.20
2022-08-18T22:56:08.249Z,11.98
2022-08-18T22:58:13.379Z,10.80
2022-08-18T23:00:23.942Z,11.90
2022-08-18T23:02:32.662Z,10.88
2022-08-18T23:04:37.585Z,10.93
2022-08-18T23:06:42.556Z,10.07
2022-08-18T23:08:54.572Z,9.05
2022-08-18T23:11:00.871Z,10.35
2022-08-18T23:13:05.756Z,10.60
2022-08-18T23:15:13.571Z,9.27
2022-08-18T23:17:21.501Z,11.30
2022-08-18T23:19:31.559Z,11.82
2022-08-18T23:21:37.114Z,11.52
2022-08-18T23:23:42.034Z,10.98
2022-08-18T23:25:47.922Z,10.32
2022-08-18T23:27:52.818Z,12.93
2022-08-18T23:29:57.649Z,14.00
2022-08-18T23:32:05.208Z,12.10
2022-08-18T23:34:11.564Z,14.00
2022-08-18T23:36:18.969Z,12.68
2022-08-18T23:38:24.023Z,13.10
2022-08-18T23:40:37.449Z,13.02
2022-08-18T23:42:42.358Z,12.50
2022-08-18T23:44:47.325Z,13.93
2022-08-18T23:46:52.661Z,12.00
2022-08-18T23:48:59.786Z,16.20
2022-08-18T23:51:04.677Z,14.02
2022-08-18T23:53:15.098Z,13.23
2022-08-18T23:55:19.968Z,13.98
2022-08-18T23:57:24.823Z,14.70
2022-08-18T23:59:31.725Z,16.80
